sensor_id;sensor_type;location;lat;lon;timestamp;pressure;altitude;pressure_sealevel;temperature;humidity
57894;BME280;43710;47.460;19.034;2023-04-05T03:58:56;100824.56;;;3.90;52.39
57894;BME280;43710;47.460;19.034;2023-04-05T04:02:00;100824.56;;;3.90;52.39
57894;BME280;43710;47.460;19.034;2023-04-05T04:05:03;100827.66;;;3.39;53.13
57894;BME280;43710;47.460;19.034;2023-04-05T04:08:08;100825.75;;;3.46;53.61
57894;BME280;43710;47.460;19.034;2023-04-05T04:11:11;100829.56;;;3.50;70.05
57894;BME280;43710;47.460;19.034;2023-04-05T04:14:14;100826.91;;;3.50;55.84
57894;BME280;43710;47.460;19.034;2023-04-05T04:17:31;100835.75;;;3.44;66.91
57894;BME280;43710;47.460;19.034;2023-04-05T04:20:37;100834.13;;;3.61;54.31
57894;BME280;43710;47.460;19.034;2023-04-05T04:23:40;100837.06;;;3.53;53.17
57894;BME280;43710;47.460;19.034;2023-04-05T04:26:47;100830.25;;;3.45;53.33
57894;BME280;43710;47.460;19.034;2023-04-05T04:29:50;100833.00;;;3.50;53.69
57894;BME280;43710;47.460;19.034;2023-04-05T04:33:03;100835.44;;;3.70;53.74
57894;BME280;43710;47.460;19.034;2023-04-05T04:36:10;100835.88;;;3.67;53.12
57894;BME280;43710;47.460;19.034;2023-04-05T04:39:15;100833.53;;;3.59;53.92
57894;BME280;43710;47.460;19.034;2023-04-05T04:42:18;100835.03;;;3.55;59.69
57894;BME280;43710;47.460;19.034;2023-04-05T04:45:21;100835.59;;;3.57;54.02
57894;BME280;43710;47.460;19.034;2023-04-05T04:48:23;100832.72;;;3.59;54.54
57894;BME280;43710;47.460;19.034;2023-04-05T04:51:26;100829.72;;;3.55;54.86
57894;BME280;43710;47.460;19.034;2023-04-05T04:54:28;100840.00;;;3.63;54.08
57894;BME280;43710;47.460;19.034;2023-04-05T04:57:30;100841.56;;;3.71;53.41
57894;BME280;43710;47.460;19.034;2023-04-05T05:00:33;100841.78;;;3.69;52.79
57894;BME280;43710;47.460;19.034;2023-04-05T05:03:35;100838.03;;;3.59;53.26
57894;BME280;43710;47.460;19.034;2023-04-05T05:06:39;100847.16;;;3.63;54.27
57894;BME280;43710;47.460;19.034;2023-04-05T05:09:42;100852.25;;;3.64;52.92
57894;BME280;43710;47.460;19.034;2023-04-05T05:12:45;100853.91;;;3.77;52.35
57894;BME280;43710;47.460;19.034;2023-04-05T05:15:47;100845.91;;;3.65;52.78
57894;BME280;43710;47.460;19.034;2023-04-05T05:18:50;100848.03;;;3.75;59.46
57894;BME280;43710;47.460;19.034;2023-04-05T05:21:52;100846.63;;;3.72;52.61
57894;BME280;43710;47.460;19.034;2023-04-05T05:24:55;100858.22;;;3.90;68.94
57894;BME280;43710;47.460;19.034;2023-04-05T05:27:57;100861.59;;;3.97;62.76
57894;BME280;43710;47.460;19.034;2023-04-05T05:31:02;100860.22;;;3.94;53.90
57894;BME280;43710;47.460;19.034;2023-04-05T05:34:07;100856.72;;;4.12;52.36
57894;BME280;43710;47.460;19.034;2023-04-05T05:37:11;100863.78;;;4.30;50.52
57894;BME280;43710;47.460;19.034;2023-04-05T05:40:17;100856.88;;;4.29;50.69
57894;BME280;43710;47.460;19.034;2023-04-05T05:43:20;100860.28;;;4.48;49.86
57894;BME280;43710;47.460;19.034;2023-04-05T05:46:22;100859.78;;;4.28;50.61
57894;BME280;43710;47.460;19.034;2023-04-05T05:49:24;100847.69;;;4.43;49.55
57894;BME280;43710;47.460;19.034;2023-04-05T05:52:27;100859.63;;;4.76;61.19
57894;BME280;43710;47.460;19.034;2023-04-05T05:55:29;100857.44;;;5.08;52.19
57894;BME280;43710;47.460;19.034;2023-04-05T05:58:31;100846.69;;;5.03;48.63
57894;BME280;43710;47.460;19.034;2023-04-05T06:01:34;100843.47;;;5.01;68.61
57894;BME280;43710;47.460;19.034;2023-04-05T06:04:44;100848.62;;;5.19;63.20
57894;BME280;43710;47.460;19.034;2023-04-05T06:07:47;100848.56;;;5.67;70.02
57894;BME280;43710;47.460;19.034;2023-04-05T06:10:52;100848.25;;;5.92;54.67
57894;BME280;43710;47.460;19.034;2023-04-05T06:13:54;100850.25;;;5.44;41.40
57894;BME280;43710;47.460;19.034;2023-04-05T06:16:57;100842.19;;;5.68;66.67
57894;BME280;43710;47.460;19.034;2023-04-05T06:19:59;100854.37;;;5.63;42.72
57894;BME280;43710;47.460;19.034;2023-04-05T06:23:02;100846.31;;;5.47;42.09
57894;BME280;43710;47.460;19.034;2023-04-05T06:26:04;100844.38;;;5.18;41.51
57894;BME280;43710;47.460;19.034;2023-04-05T06:29:06;100846.25;;;5.70;45.64
57894;BME280;43710;47.460;19.034;2023-04-05T06:32:10;100842.59;;;5.88;46.29
57894;BME280;43710;47.460;19.034;2023-04-05T06:35:12;100849.94;;;6.09;55.31
57894;BME280;43710;47.460;19.034;2023-04-05T06:38:15;100859.97;;;5.79;56.41
57894;BME280;43710;47.460;19.034;2023-04-05T06:41:18;100846.59;;;6.02;50.72
57894;BME280;43710;47.460;19.034;2023-04-05T06:44:20;100856.28;;;6.54;71.84
57894;BME280;43710;47.460;19.034;2023-04-05T06:47:22;100860.50;;;6.83;75.60
57894;BME280;43710;47.460;19.034;2023-04-05T06:50:25;100851.03;;;5.97;43.81
57894;BME280;43710;47.460;19.034;2023-04-05T06:53:29;100859.59;;;5.99;42.41
57894;BME280;43710;47.460;19.034;2023-04-05T06:56:31;100855.97;;;5.64;47.46
57894;BME280;43710;47.460;19.034;2023-04-05T06:59:34;100851.16;;;5.90;44.05
57894;BME280;43710;47.460;19.034;2023-04-05T07:02:36;100854.25;;;5.99;41.59
57894;BME280;43710;47.460;19.034;2023-04-05T07:05:40;100847.03;;;6.11;43.12
57894;BME280;43710;47.460;19.034;2023-04-05T07:08:43;100853.16;;;6.57;78.29
57894;BME280;43710;47.460;19.034;2023-04-05T07:11:45;100855.56;;;6.92;67.88
57894;BME280;43710;47.460;19.034;2023-04-05T07:14:48;100856.91;;;7.12;48.09
57894;BME280;43710;47.460;19.034;2023-04-05T07:17:50;100859.44;;;6.85;51.29
57894;BME280;43710;47.460;19.034;2023-04-05T07:20:56;100852.22;;;7.19;72.61
57894;BME280;43710;47.460;19.034;2023-04-05T07:24:01;100857.59;;;7.02;52.31
57894;BME280;43710;47.460;19.034;2023-04-05T07:27:04;100857.59;;;7.02;43.64
57894;BME280;43710;47.460;19.034;2023-04-05T07:30:07;100850.37;;;6.35;38.81
57894;BME280;43710;47.460;19.034;2023-04-05T07:33:09;100850.50;;;5.71;43.18
57894;BME280;43710;47.460;19.034;2023-04-05T07:36:12;100855.31;;;6.43;68.69
57894;BME280;43710;47.460;19.034;2023-04-05T07:39:14;100849.97;;;6.26;40.38
57894;BME280;43710;47.460;19.034;2023-04-05T07:42:17;100849.34;;;6.36;55.79
57894;BME280;43710;47.460;19.034;2023-04-05T07:45:22;100850.06;;;6.99;50.00
57894;BME280;43710;47.460;19.034;2023-04-05T07:48:24;100848.72;;;6.79;39.90
57894;BME280;43710;47.460;19.034;2023-04-05T07:51:26;100841.91;;;6.38;38.93
57894;BME280;43710;47.460;19.034;2023-04-05T07:54:32;100851.28;;;6.57;53.10
57894;BME280;43710;47.460;19.034;2023-04-05T07:57:35;100849.03;;;6.66;63.36
57894;BME280;43710;47.460;19.034;2023-04-05T08:00:37;100849.56;;;7.19;50.30
57894;BME280;43710;47.460;19.034;2023-04-05T08:03:40;100847.28;;;7.49;65.21
57894;BME280;43710;47.460;19.034;2023-04-05T08:06:43;100839.78;;;7.68;53.36
57894;BME280;43710;47.460;19.034;2023-04-05T08:09:45;100843.59;;;7.77;63.78
57894;BME280;43710;47.460;19.034;2023-04-05T08:12:47;100835.72;;;7.22;48.95
57894;BME280;43710;47.460;19.034;2023-04-05T08:15:50;100840.72;;;7.35;50.22
57894;BME280;43710;47.460;19.034;2023-04-05T08:18:52;100847.81;;;7.73;70.98
57894;BME280;43710;47.460;19.034;2023-04-05T08:21:55;100845.75;;;7.81;54.84
57894;BME280;43710;47.460;19.034;2023-04-05T08:24:58;100842.59;;;7.84;57.42
57894;BME280;43710;47.460;19.034;2023-04-05T08:28:00;100846.94;;;7.68;45.43
57894;BME280;43710;47.460;19.034;2023-04-05T08:31:02;100842.44;;;7.07;37.63
57894;BME280;43710;47.460;19.034;2023-04-05T08:34:06;100844.53;;;7.44;43.95
57894;BME280;43710;47.460;19.034;2023-04-05T08:37:09;100833.75;;;8.05;68.91
57894;BME280;43710;47.460;19.034;2023-04-05T08:40:12;100837.69;;;8.24;49.64
57894;BME280;43710;47.460;19.034;2023-04-05T08:46:57;100832.66;;;8.33;47.80
57894;BME280;43710;47.460;19.034;2023-04-05T08:50:02;100834.47;;;7.95;39.19
57894;BME280;43710;47.460;19.034;2023-04-05T08:53:06;100830.91;;;7.63;44.20
57894;BME280;43710;47.460;19.034;2023-04-05T08:56:09;100828.47;;;7.61;57.47
57894;BME280;43710;47.460;19.034;2023-04-05T08:59:15;100824.81;;;7.94;46.62
57894;BME280;43710;47.460;19.034;2023-04-05T09:02:18;100823.87;;;8.06;39.91
57894;BME280;43710;47.460;19.034;2023-04-05T09:05:22;100825.19;;;7.76;57.50
57894;BME280;43710;47.460;19.034;2023-04-05T09:08:25;100825.38;;;8.23;58.19
57894;BME280;43710;47.460;19.034;2023-04-05T09:11:28;100817.53;;;8.12;47.88
57894;BME280;43710;47.460;19.034;2023-04-05T09:14:33;100814.66;;;8.18;44.59
57894;BME280;43710;47.460;19.034;2023-04-05T09:17:38;100807.88;;;8.11;46.15
57894;BME280;43710;47.460;19.034;2023-04-05T09:20:40;100815.47;;;8.19;49.58
57894;BME280;43710;47.460;19.034;2023-04-05T09:23:51;100809.53;;;8.44;54.66
57894;BME280;43710;47.460;19.034;2023-04-05T09:27:10;100810.34;;;8.17;37.25
57894;BME280;43710;47.460;19.034;2023-04-05T09:30:20;100807.34;;;8.09;37.57
57894;BME280;43710;47.460;19.034;2023-04-05T09:33:23;100809.13;;;7.49;38.85
57894;BME280;43710;47.460;19.034;2023-04-05T09:36:26;100804.19;;;7.85;52.83
57894;BME280;43710;47.460;19.034;2023-04-05T09:39:30;100809.63;;;8.54;58.30
57894;BME280;43710;47.460;19.034;2023-04-05T09:42:42;100786.94;;;8.99;67.26
57894;BME280;43710;47.460;19.034;2023-04-05T09:45:48;100797.16;;;9.12;55.05
57894;BME280;43710;47.460;19.034;2023-04-05T09:48:51;100795.47;;;8.54;56.20
57894;BME280;43710;47.460;19.034;2023-04-05T09:51:53;100788.69;;;8.78;57.50
57894;BME280;43710;47.460;19.034;2023-04-05T09:54:59;100788.09;;;8.07;37.55
57894;BME280;43710;47.460;19.034;2023-04-05T09:58:01;100793.63;;;7.46;36.69
57894;BME280;43710;47.460;19.034;2023-04-05T10:01:05;100794.22;;;7.75;55.17
57894;BME280;43710;47.460;19.034;2023-04-05T10:04:14;100787.25;;;7.74;36.70
57894;BME280;43710;47.460;19.034;2023-04-05T10:07:18;100779.53;;;7.77;62.83
57894;BME280;43710;47.460;19.034;2023-04-05T10:10:22;100785.87;;;8.26;50.37
57894;BME280;43710;47.460;19.034;2023-04-05T10:13:25;100782.66;;;8.56;56.61
57894;BME280;43710;47.460;19.034;2023-04-05T10:16:31;100776.81;;;8.64;39.09
57894;BME280;43710;47.460;19.034;2023-04-05T10:19:50;100772.13;;;8.81;47.66
57894;BME280;43710;47.460;19.034;2023-04-05T10:23:10;100777.75;;;8.42;37.53
57894;BME280;43710;47.460;19.034;2023-04-05T10:29:50;100765.22;;;8.16;43.09
57894;BME280;43710;47.460;19.034;2023-04-05T10:33:09;100770.16;;;8.61;42.63
57894;BME280;43710;47.460;19.034;2023-04-05T10:39:46;100762.06;;;9.04;60.10
57894;BME280;43710;47.460;19.034;2023-04-05T10:42:49;100755.22;;;9.18;44.90
57894;BME280;43710;47.460;19.034;2023-04-05T10:45:53;100767.84;;;9.43;55.99
57894;BME280;43710;47.460;19.034;2023-04-05T10:49:19;100757.47;;;8.89;39.27
57894;BME280;43710;47.460;19.034;2023-04-05T10:52:23;100751.75;;;8.33;37.81
57894;BME280;43710;47.460;19.034;2023-04-05T10:55:26;100748.28;;;8.69;42.79
57894;BME280;43710;47.460;19.034;2023-04-05T10:58:29;100751.38;;;8.51;37.75
57894;BME280;43710;47.460;19.034;2023-04-05T11:01:33;100749.69;;;8.82;42.81
57894;BME280;43710;47.460;19.034;2023-04-05T11:04:36;100747.84;;;8.88;36.60
57894;BME280;43710;47.460;19.034;2023-04-05T11:07:42;100746.63;;;8.63;37.27
57894;BME280;43710;47.460;19.034;2023-04-05T11:10:51;100748.78;;;8.29;39.58
57894;BME280;43710;47.460;19.034;2023-04-05T11:13:55;100738.31;;;8.55;44.40
57894;BME280;43710;47.460;19.034;2023-04-05T11:16:57;100741.84;;;9.18;60.56
57894;BME280;43710;47.460;19.034;2023-04-05T11:20:05;100741.81;;;9.13;41.78
57894;BME280;43710;47.460;19.034;2023-04-05T11:23:15;100749.22;;;8.53;36.36
57894;BME280;43710;47.460;19.034;2023-04-05T11:26:20;100741.22;;;8.53;38.49
57894;BME280;43710;47.460;19.034;2023-04-05T11:29:44;100739.97;;;9.18;42.66
57894;BME280;43710;47.460;19.034;2023-04-05T11:32:48;100738.56;;;9.06;46.39
57894;BME280;43710;47.460;19.034;2023-04-05T11:35:59;100730.09;;;9.24;37.76
57894;BME280;43710;47.460;19.034;2023-04-05T11:42:24;100724.19;;;9.22;44.14
57894;BME280;43710;47.460;19.034;2023-04-05T11:45:28;100723.56;;;9.00;38.59
57894;BME280;43710;47.460;19.034;2023-04-05T11:48:33;100727.41;;;9.24;56.22
57894;BME280;43710;47.460;19.034;2023-04-05T11:51:36;100729.66;;;9.73;46.48
57894;BME280;43710;47.460;19.034;2023-04-05T11:54:38;100720.31;;;9.96;41.45
57894;BME280;43710;47.460;19.034;2023-04-05T11:57:51;100719.50;;;10.01;40.63
57894;BME280;43710;47.460;19.034;2023-04-05T12:00:58;100716.53;;;9.72;51.60
57894;BME280;43710;47.460;19.034;2023-04-05T12:04:01;100717.09;;;9.79;45.50
57894;BME280;43710;47.460;19.034;2023-04-05T12:07:18;100715.22;;;9.74;39.10
57894;BME280;43710;47.460;19.034;2023-04-05T12:10:21;100707.44;;;9.78;42.66
57894;BME280;43710;47.460;19.034;2023-04-05T12:13:33;100712.00;;;9.72;39.99
57894;BME280;43710;47.460;19.034;2023-04-05T12:16:47;100697.72;;;9.36;30.90
57894;BME280;43710;47.460;19.034;2023-04-05T12:19:51;100696.69;;;9.42;34.41
57894;BME280;43710;47.460;19.034;2023-04-05T12:22:55;100702.34;;;9.76;64.29
57894;BME280;43710;47.460;19.034;2023-04-05T12:25:57;100691.09;;;10.00;45.95
57894;BME280;43710;47.460;19.034;2023-04-05T12:29:02;100692.72;;;10.01;39.10
57894;BME280;43710;47.460;19.034;2023-04-05T12:32:05;100687.38;;;9.91;39.08
57894;BME280;43710;47.460;19.034;2023-04-05T12:35:21;100680.94;;;10.02;44.94
57894;BME280;43710;47.460;19.034;2023-04-05T12:38:26;100679.06;;;10.07;37.40
57894;BME280;43710;47.460;19.034;2023-04-05T12:41:29;100687.09;;;10.18;38.09
57894;BME280;43710;47.460;19.034;2023-04-05T12:44:32;100686.03;;;10.14;37.00
57894;BME280;43710;47.460;19.034;2023-04-05T12:47:49;100688.72;;;10.34;40.91
57894;BME280;43710;47.460;19.034;2023-04-05T12:50:52;100680.94;;;10.32;34.01
57894;BME280;43710;47.460;19.034;2023-04-05T12:53:56;100670.22;;;10.32;41.26
57894;BME280;43710;47.460;19.034;2023-04-05T12:57:00;100679.62;;;10.30;30.51
57894;BME280;43710;47.460;19.034;2023-04-05T13:00:05;100674.50;;;10.44;42.36
57894;BME280;43710;47.460;19.034;2023-04-05T13:03:17;100671.25;;;10.52;37.35
57894;BME280;43710;47.460;19.034;2023-04-05T13:06:22;100667.81;;;10.10;33.66
57894;BME280;43710;47.460;19.034;2023-04-05T13:09:24;100658.19;;;10.30;52.40
57894;BME280;43710;47.460;19.034;2023-04-05T13:12:26;100649.56;;;10.38;36.89
57894;BME280;43710;47.460;19.034;2023-04-05T13:15:28;100646.87;;;10.43;46.08
57894;BME280;43710;47.460;19.034;2023-04-05T13:18:31;100656.66;;;10.84;60.20
57894;BME280;43710;47.460;19.034;2023-04-05T13:21:33;100645.94;;;10.78;31.40
57894;BME280;43710;47.460;19.034;2023-04-05T13:24:35;100651.31;;;10.78;46.83
57894;BME280;43710;47.460;19.034;2023-04-05T13:27:38;100653.44;;;10.81;51.00
57894;BME280;43710;47.460;19.034;2023-04-05T13:30:40;100645.66;;;10.85;49.03
57894;BME280;43710;47.460;19.034;2023-04-05T13:33:42;100640.56;;;10.84;42.22
57894;BME280;43710;47.460;19.034;2023-04-05T13:36:45;100641.16;;;10.70;31.58
57894;BME280;43710;47.460;19.034;2023-04-05T13:39:49;100636.84;;;10.74;44.76
57894;BME280;43710;47.460;19.034;2023-04-05T13:42:51;100644.66;;;10.71;34.14
57894;BME280;43710;47.460;19.034;2023-04-05T13:45:53;100646.47;;;10.80;38.62
57894;BME280;43710;47.460;19.034;2023-04-05T13:48:56;100637.34;;;10.81;42.02
57894;BME280;43710;47.460;19.034;2023-04-05T13:51:58;100628.22;;;10.82;36.18
57894;BME280;43710;47.460;19.034;2023-04-05T13:55:01;100625.19;;;10.24;30.10
57894;BME280;43710;47.460;19.034;2023-04-05T13:58:04;100629.47;;;10.35;40.94
57894;BME280;43710;47.460;19.034;2023-04-05T14:01:07;100630.78;;;10.53;39.08
57894;BME280;43710;47.460;19.034;2023-04-05T14:04:10;100625.97;;;10.45;31.05
57894;BME280;43710;47.460;19.034;2023-04-05T14:07:12;100620.34;;;10.47;32.89
57894;BME280;43710;47.460;19.034;2023-04-05T14:10:14;100629.66;;;10.65;32.35
57894;BME280;43710;47.460;19.034;2023-04-05T14:13:18;100625.62;;;10.67;33.75
57894;BME280;43710;47.460;19.034;2023-04-05T14:16:20;100623.31;;;10.40;33.91
57894;BME280;43710;47.460;19.034;2023-04-05T14:19:22;100612.34;;;10.31;32.82
57894;BME280;43710;47.460;19.034;2023-04-05T14:22:27;100626.03;;;10.30;30.51
57894;BME280;43710;47.460;19.034;2023-04-05T14:25:29;100622.31;;;9.75;30.24
57894;BME280;43710;47.460;19.034;2023-04-05T14:28:32;100617.75;;;9.75;31.09
57894;BME280;43710;47.460;19.034;2023-04-05T14:31:34;100625.25;;;9.78;36.50
57894;BME280;43710;47.460;19.034;2023-04-05T14:34:37;100618.78;;;10.15;35.88
57894;BME280;43710;47.460;19.034;2023-04-05T14:37:39;100615.03;;;10.11;36.17
57894;BME280;43710;47.460;19.034;2023-04-05T14:40:42;100618.81;;;10.10;31.71
57894;BME280;43710;47.460;19.034;2023-04-05T14:43:44;100622.53;;;10.14;32.52
57894;BME280;43710;47.460;19.034;2023-04-05T14:46:47;100626.00;;;10.25;37.10
57894;BME280;43710;47.460;19.034;2023-04-05T14:49:51;100629.19;;;10.47;38.48
57894;BME280;43710;47.460;19.034;2023-04-05T14:52:54;100630.00;;;10.38;31.05
57894;BME280;43710;47.460;19.034;2023-04-05T14:55:56;100630.81;;;10.38;44.28
57894;BME280;43710;47.460;19.034;2023-04-05T14:58:58;100622.19;;;10.56;57.24
57894;BME280;43710;47.460;19.034;2023-04-05T15:02:01;100625.31;;;10.74;38.15
57894;BME280;43710;47.460;19.034;2023-04-05T15:05:04;100630.78;;;10.53;40.34
57894;BME280;43710;47.460;19.034;2023-04-05T15:08:07;100635.81;;;10.65;49.25
57894;BME280;43710;47.460;19.034;2023-04-05T15:11:09;100630.16;;;10.77;36.38
57894;BME280;43710;47.460;19.034;2023-04-05T15:14:12;100634.16;;;10.74;32.47
57894;BME280;43710;47.460;19.034;2023-04-05T15:17:32;100635.50;;;10.72;36.31
57894;BME280;43710;47.460;19.034;2023-04-05T15:20:34;100633.37;;;10.69;33.43
57894;BME280;43710;47.460;19.034;2023-04-05T15:23:37;100640.41;;;10.60;44.35
57894;BME280;43710;47.460;19.034;2023-04-05T15:26:39;100634.31;;;10.23;30.24
57894;BME280;43710;47.460;19.034;2023-04-05T15:29:42;100639.09;;;10.47;34.82
57894;BME280;43710;47.460;19.034;2023-04-05T15:32:44;100631.56;;;10.54;41.30
57894;BME280;43710;47.460;19.034;2023-04-05T15:35:47;100642.22;;;10.69;35.70
57894;BME280;43710;47.460;19.034;2023-04-05T15:38:49;100633.19;;;10.50;32.24
57894;BME280;43710;47.460;19.034;2023-04-05T15:41:52;100637.50;;;10.35;37.53
57894;BME280;43710;47.460;19.034;2023-04-05T15:44:54;100634.84;;;10.30;32.52
57894;BME280;43710;47.460;19.034;2023-04-05T15:47:57;100632.91;;;10.51;36.49
57894;BME280;43710;47.460;19.034;2023-04-05T15:50:59;100634.59;;;10.17;30.54
57894;BME280;43710;47.460;19.034;2023-04-05T15:54:02;100634.63;;;9.91;30.18
57894;BME280;43710;47.460;19.034;2023-04-05T15:57:04;100631.13;;;9.96;30.14
